createdAt,value
2018-07-17T18:38:17.187Z,43.20
2018-07-17T18:40:45.508Z,40.50
2018-07-17T18:43:13.829Z,39.30
2018-07-17T18:45:42.145Z,41.20
2018-07-17T18:48:10.502Z,40.50
2018-07-17T18:50:38.716Z,40.20
2018-07-17T18:53:07.074Z,40.00
2018-07-17T18:55:35.592Z,42.60
2018-07-17T18:58:03.922Z,40.40
2018-07-17T19:00:32.191Z,41.90
2018-07-17T19:05:55.314Z,42.70
2018-07-17T19:08:23.596Z,40.60
2018-07-17T19:10:51.897Z,41.70
2018-07-17T19:13:20.600Z,41.90
2018-07-17T19:15:48.910Z,41.60
2018-07-17T19:18:17.264Z,40.30
2018-07-17T19:20:45.576Z,40.90
2018-07-17T19:23:13.900Z,41.80
2018-07-17T19:25:42.269Z,41.30
2018-07-17T19:28:10.613Z,42.50
2018-07-17T19:30:38.937Z,41.60
2018-07-17T19:33:08.251Z,41.40
2018-07-17T19:35:36.634Z,41.80
2018-07-17T19:38:05.039Z,41.60
2018-07-17T19:40:33.388Z,41.80
2018-07-17T19:43:01.941Z,42.30
2018-07-17T19:45:30.298Z,41.60
2018-07-17T19:47:58.700Z,42.70
2018-07-17T19:50:27.067Z,42.70
2018-07-17T19:52:55.549Z,42.40
2018-07-17T19:55:23.929Z,42.00
2018-07-17T19:57:52.395Z,42.50
2018-07-17T20:00:20.822Z,43.60
2018-07-17T20:02:49.215Z,43.10
2018-07-17T20:05:17.623Z,43.30
2018-07-17T20:07:46.035Z,43.70
2018-07-17T20:10:14.481Z,43.10
2018-07-17T20:12:42.966Z,43.50
2018-07-17T20:15:11.409Z,43.20
2018-07-17T20:17:40.294Z,43.80
2018-07-17T20:20:09.181Z,43.00
2018-07-17T20:22:38.581Z,44.20
2018-07-17T20:25:07.413Z,43.10
2018-07-17T20:27:36.260Z,43.60
2018-07-17T20:30:05.032Z,43.10
2018-07-17T20:32:33.597Z,43.70
2018-07-17T20:35:02.064Z,43.90
2018-07-17T20:37:30.370Z,43.40
2018-07-17T20:39:58.713Z,44.00
2018-07-17T20:42:27.052Z,44.60
2018-07-17T20:44:55.348Z,44.10
2018-07-17T20:47:23.826Z,44.80
2018-07-17T20:49:52.176Z,44.10
2018-07-17T20:52:21.028Z,44.60
2018-07-17T20:54:49.340Z,44.40
2018-07-17T20:57:17.782Z,45.30
2018-07-17T20:59:46.117Z,44.30
2018-07-17T21:02:14.448Z,45.80
2018-07-17T21:04:42.874Z,45.60
2018-07-17T21:07:11.226Z,45.20
2018-07-17T21:09:39.782Z,45.40
2018-07-17T21:12:08.267Z,45.40
2018-07-17T21:14:36.741Z,46.00
2018-07-17T21:17:05.260Z,45.90
2018-07-17T21:19:33.583Z,46.00
2018-07-17T21:22:01.882Z,45.60
2018-07-17T21:24:30.445Z,46.50
2018-07-17T21:26:58.712Z,46.30
2018-07-17T21:29:27.153Z,45.90
2018-07-17T21:31:55.512Z,46.30
2018-07-17T21:36:51.901Z,47.30
2018-07-17T21:39:20.167Z,47.40
2018-07-17T21:41:48.451Z,47.60
2018-07-17T21:44:16.761Z,47.80
2018-07-17T21:46:45.030Z,48.60
2018-07-17T21:49:13.322Z,48.70
2018-07-17T21:51:41.610Z,49.40
2018-07-17T21:54:10.051Z,48.80
2018-07-17T21:56:38.337Z,49.40
2018-07-17T21:59:06.612Z,49.40
2018-07-17T22:01:34.915Z,49.30
2018-07-17T22:04:03.246Z,49.00
2018-07-17T22:06:31.525Z,49.30
2018-07-17T22:08:59.809Z,49.30
2018-07-17T22:11:28.081Z,49.00
2018-07-17T22:13:56.448Z,48.90
2018-07-17T22:16:24.717Z,49.20
2018-07-17T22:18:53.101Z,49.10
2018-07-17T22:21:21.373Z,48.20
2018-07-17T22:23:49.641Z,48.70
2018-07-17T22:26:17.927Z,48.80
2018-07-17T22:28:46.258Z,49.40
2018-07-17T22:31:14.557Z,49.50
2018-07-17T22:33:42.889Z,49.50
2018-07-17T22:36:11.229Z,49.60
2018-07-17T22:38:39.567Z,49.20
2018-07-17T22:41:07.970Z,49.80
2018-07-17T22:43:36.217Z,49.90
2018-07-17T22:46:04.496Z,49.70
2018-07-17T22:48:32.767Z,49.90
2018-07-17T22:51:01.033Z,50.00
2018-07-17T22:53:29.367Z,50.00
2018-07-17T22:55:57.717Z,50.10
2018-07-17T22:58:26.216Z,50.00
2018-07-17T23:00:54.669Z,50.50
2018-07-17T23:03:22.933Z,50.40
2018-07-17T23:05:51.211Z,50.00
2018-07-17T23:08:19.508Z,49.60
2018-07-17T23:10:47.772Z,50.40
2018-07-17T23:13:16.098Z,50.00
2018-07-17T23:15:44.425Z,49.00
2018-07-17T23:18:12.715Z,49.20
2018-07-17T23:20:40.999Z,49.40
2018-07-17T23:23:09.304Z,49.20
2018-07-17T23:25:37.558Z,49.80
2018-07-17T23:28:05.821Z,49.80
2018-07-17T23:30:34.118Z,49.20
2018-07-17T23:33:02.371Z,50.30
2018-07-17T23:35:30.707Z,49.30
2018-07-17T23:37:58.914Z,50.30
2018-07-17T23:40:27.193Z,49.70
2018-07-17T23:42:56.624Z,50.20
2018-07-17T23:45:24.917Z,50.30
2018-07-17T23:47:53.252Z,50.30
2018-07-17T23:50:21.533Z,50.10
2018-07-17T23:52:49.821Z,50.60
2018-07-17T23:55:18.097Z,50.90
2018-07-17T23:57:46.375Z,50.50
